Portada
METAR-TAF:

METAR-TAF

Aeroports :

Besiers, França

latitud: 43-19N, longitud: 003-21E, altitud: 17 m

Observació

L'informe es va fer fa 26 minuts, a les 21:30 UTC
Vent 7 kt del Oest
Temperatura 3°C
Humitat 75%
Pressió 1005 hPa
Visibilitat 10 km o més
sense núvols per sota de 1500 mi sense presència de cumulonimbus.

METAR: LFMU 222130Z AUTO 28007KT CAVOK 03/M01 Q1005

Hora: 22:56 (21:56 UTC)

Pronòstic

L'informe es va fer fa 7 hores i 56 minuts, a les 14:00 UTC
Pronòstic vàlid del 22 a les 15 UTC al 23 a les 15 UTC
Vent 6 kt del Nord-Oest
Visibilitat 10 km o més
sense núvols per sota de 1500 mi sense presència de cumulonimbus.
Probabilitat 30% :
Temporalment
l' 22 a les 16 UTC al 22 a les 21 UTC
Cel ennuvolat a una alçada de 1400 ft
pluja
Evolucionant progressivament
l' 23 a les 12 UTC al 23 a les 14 UTC
Vent 20 kt del Nord-Oest amb ràfegues de 30 kt

TAF: LFMU 221400Z 2215/2315 32006KT CAVOK PROB30 TEMPO 2216/2221 -RA BKN014 BECMG 2312/2314 32020G30KT

Observacions i pronòstics meteorològics de més de 4000 aeroports (METAR i TAF).

Les estacions disponibles són els punts grocs i vermells al mapa.

Posi el ratolí al punt desitjat per veure el nom de l'estació.

Feu clic per veure les observacions i els pronòstics meteorològics.

Per canviar el mapa: feu clic els botons verds amb una creu de color negre per apropar; al botó verd amb un guió per allunyar la imatge; o en les fletxes verdes per a mapes adjacents.


METAR-TAF: